createdAt,value
2022-09-15T00:00:22.562Z,12.35
2022-09-15T00:03:26.660Z,12.02
2022-09-15T00:06:31.034Z,12.85
2022-09-15T00:09:35.760Z,13.40
2022-09-15T00:12:39.720Z,12.27
2022-09-15T00:15:43.536Z,11.98
2022-09-15T00:18:48.291Z,13.00
2022-09-15T00:21:52.570Z,12.55
2022-09-15T00:24:56.808Z,12.68
2022-09-15T00:28:00.589Z,13.35
2022-09-15T00:31:07.516Z,14.02
2022-09-15T00:34:13.432Z,13.23
2022-09-15T00:37:18.135Z,13.02
2022-09-15T00:40:22.342Z,12.95
2022-09-15T00:43:50.510Z,13.25
2022-09-15T00:47:15.640Z,13.25
2022-09-15T00:50:21.906Z,11.93
2022-09-15T00:53:27.189Z,13.10
2022-09-15T00:56:33.756Z,13.95
2022-09-15T00:59:41.384Z,13.45
2022-09-15T01:02:47.285Z,13.38
2022-09-15T01:05:57.826Z,14.20
2022-09-15T01:09:16.568Z,13.25
2022-09-15T01:12:21.865Z,14.77
2022-09-15T01:15:32.322Z,15.38
2022-09-15T01:19:10.341Z,15.77
2022-09-15T01:22:36.187Z,15.27
2022-09-15T01:25:43.584Z,15.05
2022-09-15T01:29:25.243Z,15.38
2022-09-15T01:33:05.366Z,14.57
2022-09-15T01:36:24.586Z,13.57
2022-09-15T01:39:35.090Z,13.63
2022-09-15T01:42:40.551Z,14.80
2022-09-15T01:45:47.426Z,14.63
2022-09-15T01:48:55.022Z,14.93
2022-09-15T01:51:59.497Z,14.95
2022-09-15T01:55:14.012Z,15.02
2022-09-15T01:58:17.822Z,15.60
2022-09-15T02:01:29.752Z,13.88
2022-09-15T02:04:51.162Z,13.98
2022-09-15T02:08:09.815Z,13.55
2022-09-15T02:11:25.824Z,13.60
2022-09-15T02:14:52.700Z,13.57
2022-09-15T02:17:59.144Z,12.65
2022-09-15T02:21:15.067Z,14.35
2022-09-15T02:24:25.157Z,13.40
2022-09-15T02:27:32.777Z,14.02
2022-09-15T02:30:41.196Z,13.82
2022-09-15T02:33:51.196Z,13.25
2022-09-15T02:36:55.261Z,14.40
2022-09-15T02:40:00.224Z,13.60
2022-09-15T02:43:05.462Z,13.27
2022-09-15T02:46:09.607Z,13.90
2022-09-15T02:49:14.150Z,12.52
2022-09-15T02:52:18.307Z,12.68
2022-09-15T02:55:23.650Z,12.88
2022-09-15T02:58:27.781Z,12.80
2022-09-15T03:01:34.671Z,12.93
2022-09-15T03:04:38.900Z,13.35
2022-09-15T03:07:43.581Z,13.45
2022-09-15T03:10:47.896Z,13.93
2022-09-15T03:14:00.704Z,13.25
2022-09-15T03:17:04.854Z,13.30
2022-09-15T03:20:11.359Z,13.60
2022-09-15T03:23:15.128Z,13.02
2022-09-15T03:26:18.989Z,13.65
2022-09-15T03:29:23.244Z,14.20
2022-09-15T03:32:27.563Z,14.32
2022-09-15T03:35:31.480Z,15.52
2022-09-15T03:38:35.450Z,16.35
2022-09-15T03:41:39.427Z,14.70
2022-09-15T03:44:43.785Z,15.55
2022-09-15T03:47:47.857Z,14.50
2022-09-15T03:50:52.095Z,14.48
2022-09-15T03:53:56.471Z,14.32
2022-09-15T03:57:00.697Z,14.88
2022-09-15T04:00:07.906Z,14.93
2022-09-15T04:03:13.281Z,14.07
2022-09-15T04:06:18.298Z,13.93
2022-09-15T04:09:22.440Z,14.30
2022-09-15T04:12:26.289Z,14.52
2022-09-15T04:15:30.391Z,15.02
2022-09-15T04:18:34.901Z,14.65
2022-09-15T04:21:38.909Z,15.23
2022-09-15T04:24:42.881Z,15.38
2022-09-15T04:27:47.219Z,15.05
2022-09-15T04:30:52.075Z,15.52
2022-09-15T04:33:56.627Z,14.18
2022-09-15T04:37:00.851Z,15.90
2022-09-15T04:40:05.337Z,15.18
2022-09-15T04:43:09.542Z,14.88
2022-09-15T04:46:15.080Z,15.77
2022-09-15T04:49:19.468Z,16.60
2022-09-15T04:52:23.510Z,15.27
2022-09-15T04:55:27.413Z,15.93
2022-09-15T04:58:34.903Z,15.60
2022-09-15T05:01:39.655Z,15.10
2022-09-15T05:04:44.126Z,16.02
2022-09-15T05:07:48.313Z,14.75
2022-09-15T05:10:53.305Z,15.15
2022-09-15T05:13:57.176Z,16.02
2022-09-15T05:17:01.150Z,15.30
2022-09-15T05:20:05.522Z,15.77
2022-09-15T05:23:10.569Z,14.35
2022-09-15T05:26:17.791Z,15.32
2022-09-15T05:29:22.075Z,15.32
2022-09-15T05:32:26.437Z,16.30
2022-09-15T05:35:30.093Z,15.55
2022-09-15T05:38:34.005Z,14.32
2022-09-15T05:41:38.122Z,16.10
2022-09-15T05:44:41.951Z,16.13
2022-09-15T05:47:46.292Z,15.40
2022-09-15T05:50:52.702Z,16.88
2022-09-15T05:53:56.830Z,16.35
2022-09-15T05:57:01.187Z,16.30
2022-09-15T06:00:05.613Z,17.05
2022-09-15T06:03:14.973Z,18.05
2022-09-15T06:06:19.945Z,15.88
2022-09-15T06:09:23.859Z,16.88
2022-09-15T06:12:27.619Z,16.65
2022-09-15T06:15:32.429Z,16.90
2022-09-15T06:18:38.153Z,16.40
2022-09-15T06:21:42.219Z,17.05
2022-09-15T06:24:46.268Z,16.27
2022-09-15T06:27:50.644Z,16.33
2022-09-15T06:30:54.661Z,17.33
2022-09-15T06:34:00.581Z,16.27
2022-09-15T06:37:04.761Z,13.98
2022-09-15T06:40:09.370Z,15.88
2022-09-15T06:43:13.738Z,15.52
2022-09-15T06:46:21.387Z,15.45
2022-09-15T06:49:26.052Z,14.25
2022-09-15T06:52:30.030Z,15.80
2022-09-15T06:55:34.171Z,14.98
2022-09-15T06:58:40.105Z,16.08
2022-09-15T07:01:44.188Z,15.70
2022-09-15T07:04:48.348Z,16.23
2022-09-15T07:07:53.053Z,16.00
2022-09-15T07:10:57.529Z,16.35
2022-09-15T07:14:01.799Z,15.13
2022-09-15T07:17:05.928Z,30.33
2022-09-15T07:20:10.265Z,16.52
2022-09-15T07:23:15.224Z,15.65
2022-09-15T07:26:22.043Z,16.77
2022-09-15T07:29:26.225Z,17.77
2022-09-15T07:32:30.294Z,17.85
2022-09-15T07:35:34.462Z,18.23
2022-09-15T07:38:41.511Z,16.65
2022-09-15T07:41:45.186Z,17.73
2022-09-15T07:44:49.060Z,18.40
2022-09-15T07:47:52.874Z,16.85
2022-09-15T07:50:57.141Z,17.65
2022-09-15T07:54:01.611Z,17.35
2022-09-15T07:57:06.433Z,16.20
2022-09-15T08:00:11.196Z,16.33
2022-09-15T08:03:15.969Z,16.70
2022-09-15T08:06:25.335Z,15.25
2022-09-15T08:09:29.718Z,14.32
2022-09-15T08:12:33.828Z,15.57
2022-09-15T08:15:38.176Z,14.32
2022-09-15T08:18:43.113Z,13.60
2022-09-15T08:21:47.319Z,13.40
2022-09-15T08:24:51.292Z,14.02
2022-09-15T08:27:56.321Z,12.50
2022-09-15T08:31:05.967Z,13.10
2022-09-15T08:34:12.127Z,13.40
2022-09-15T08:37:16.972Z,12.38
2022-09-15T08:40:29.883Z,13.13
2022-09-15T08:44:16.127Z,12.25
2022-09-15T08:47:31.800Z,12.75
2022-09-15T08:50:43.296Z,13.20
2022-09-15T08:53:59.692Z,13.55
2022-09-15T08:57:05.640Z,14.57
2022-09-15T09:00:17.092Z,13.80
2022-09-15T09:03:39.548Z,13.32
2022-09-15T09:07:03.839Z,14.27
2022-09-15T09:10:29.414Z,17.23
2022-09-15T09:13:36.515Z,15.98
2022-09-15T09:16:43.245Z,14.13
2022-09-15T09:19:50.117Z,13.10
2022-09-15T09:22:54.748Z,13.45
2022-09-15T09:26:01.890Z,12.18
2022-09-15T09:29:18.315Z,12.32
2022-09-15T09:32:26.210Z,13.02
2022-09-15T09:35:53.267Z,12.98
2022-09-15T09:38:58.531Z,10.85
2022-09-15T09:42:03.334Z,11.48
2022-09-15T09:45:11.509Z,10.82
2022-09-15T09:48:21.300Z,9.32
2022-09-15T09:51:34.350Z,8.77
2022-09-15T09:54:38.723Z,8.65
2022-09-15T09:57:42.964Z,6.63
2022-09-15T10:00:47.843Z,6.00
2022-09-15T10:04:12.502Z,5.25
2022-09-15T10:07:21.057Z,5.63
2022-09-15T10:10:32.174Z,5.78
2022-09-15T10:13:49.336Z,5.22
2022-09-15T10:17:06.412Z,5.60
2022-09-15T10:20:25.649Z,5.70
2022-09-15T10:23:31.459Z,5.75
2022-09-15T10:26:35.689Z,5.75
2022-09-15T10:29:39.829Z,4.32
2022-09-15T10:32:44.123Z,4.50
2022-09-15T10:35:48.247Z,4.68
2022-09-15T10:39:01.843Z,4.30
2022-09-15T10:42:16.696Z,4.80
2022-09-15T10:45:40.372Z,4.18
2022-09-15T10:49:12.285Z,3.40
2022-09-15T10:52:34.495Z,3.60
2022-09-15T10:55:52.765Z,3.35
2022-09-15T10:59:09.464Z,3.15
2022-09-15T11:02:14.562Z,3.00
2022-09-15T11:05:26.808Z,2.90
2022-09-15T11:08:40.685Z,2.90
2022-09-15T11:12:09.046Z,3.20
2022-09-15T11:15:35.482Z,3.28
2022-09-15T11:19:06.607Z,4.20
2022-09-15T11:22:20.333Z,3.75
2022-09-15T11:28:43.894Z,3.58
2022-09-15T11:31:52.230Z,3.53
2022-09-15T11:35:26.381Z,3.00
2022-09-15T11:41:56.402Z,2.10
2022-09-15T11:45:02.217Z,2.15
2022-09-15T11:48:16.180Z,1.80
2022-09-15T11:54:34.769Z,2.58
2022-09-15T11:57:45.780Z,1.70
2022-09-15T12:00:59.314Z,1.30
2022-09-15T12:04:10.438Z,1.30
2022-09-15T12:07:18.813Z,1.60
2022-09-15T12:10:31.236Z,1.30
2022-09-15T12:13:37.061Z,1.30
2022-09-15T12:16:41.363Z,1.40
2022-09-15T12:19:55.853Z,1.40
2022-09-15T12:23:32.864Z,1.75
2022-09-15T12:26:38.009Z,1.45
2022-09-15T12:29:50.950Z,1.45
2022-09-15T12:32:56.435Z,1.77
2022-09-15T12:36:39.086Z,1.60
2022-09-15T12:39:45.204Z,1.50
2022-09-15T12:42:49.142Z,1.30
2022-09-15T12:46:00.092Z,1.20
2022-09-15T12:49:04.228Z,1.23
2022-09-15T12:52:09.913Z,1.20
2022-09-15T12:55:27.279Z,1.42
2022-09-15T12:58:40.501Z,1.30
2022-09-15T13:04:53.778Z,1.40
2022-09-15T13:07:58.803Z,1.60
2022-09-15T13:11:12.537Z,1.35
2022-09-15T13:14:34.259Z,1.33
2022-09-15T13:17:42.833Z,1.38
2022-09-15T13:21:00.038Z,1.60
2022-09-15T13:24:08.495Z,1.42
2022-09-15T13:27:16.193Z,1.80
2022-09-15T13:30:51.845Z,1.60
2022-09-15T13:38:15.211Z,1.83
2022-09-15T13:42:09.362Z,1.58
2022-09-15T13:45:50.577Z,1.80
2022-09-15T13:49:19.629Z,2.03
2022-09-15T13:53:02.860Z,2.00
2022-09-15T13:56:10.379Z,1.83
2022-09-15T13:59:25.318Z,2.03
2022-09-15T14:02:30.036Z,2.35
2022-09-15T14:05:35.779Z,2.08
2022-09-15T14:08:42.093Z,1.50
2022-09-15T14:11:53.017Z,1.70
2022-09-15T14:14:59.172Z,1.75
2022-09-15T14:18:03.532Z,2.00
2022-09-15T14:21:17.354Z,1.50
2022-09-15T14:27:29.372Z,1.50
2022-09-15T14:30:33.585Z,1.40
2022-09-15T14:33:40.556Z,1.40
2022-09-15T14:36:45.856Z,1.50
2022-09-15T14:39:56.344Z,1.50
2022-09-15T14:43:00.668Z,1.33
2022-09-15T14:46:18.464Z,1.42
2022-09-15T14:49:23.114Z,2.00
2022-09-15T14:52:33.440Z,1.58
2022-09-15T14:56:05.611Z,1.40
2022-09-15T14:59:20.742Z,1.55
2022-09-15T15:02:24.658Z,1.60
2022-09-15T15:05:42.258Z,1.58
2022-09-15T15:08:52.919Z,1.83
2022-09-15T15:12:02.117Z,1.63
2022-09-15T15:15:07.276Z,1.80
2022-09-15T15:18:31.874Z,1.60
2022-09-15T15:21:43.309Z,1.73
2022-09-15T15:24:49.751Z,1.55
2022-09-15T15:27:55.705Z,1.45
2022-09-15T15:31:13.565Z,1.52
2022-09-15T15:34:24.093Z,1.52
2022-09-15T15:37:33.985Z,1.30
2022-09-15T15:40:40.568Z,1.50
2022-09-15T15:44:07.576Z,1.80
2022-09-15T15:47:11.733Z,1.40
2022-09-15T15:50:22.325Z,1.50
2022-09-15T15:53:27.133Z,1.30
2022-09-15T15:56:33.595Z,1.60
2022-09-15T15:59:41.241Z,1.55
2022-09-15T16:02:46.442Z,1.40
2022-09-15T16:05:53.260Z,1.42
2022-09-15T16:09:00.612Z,1.60
2022-09-15T16:12:05.166Z,1.30
2022-09-15T16:15:20.767Z,1.30
2022-09-15T16:18:24.859Z,1.30
2022-09-15T16:21:36.821Z,1.30
2022-09-15T16:24:40.988Z,1.30
2022-09-15T16:27:45.009Z,1.30
2022-09-15T16:30:49.382Z,1.27
2022-09-15T16:33:53.591Z,1.20
2022-09-15T16:36:57.955Z,1.40
2022-09-15T16:40:02.221Z,1.23
2022-09-15T16:43:12.349Z,1.30
2022-09-15T16:46:17.082Z,1.25
2022-09-15T16:49:21.702Z,1.38
2022-09-15T16:52:25.570Z,1.30
2022-09-15T16:55:36.451Z,1.17
2022-09-15T16:58:41.461Z,1.73
2022-09-15T17:01:45.362Z,1.73
2022-09-15T17:04:49.422Z,1.20
2022-09-15T17:07:53.621Z,1.50
2022-09-15T17:11:03.410Z,1.40
2022-09-15T17:14:13.160Z,1.23
2022-09-15T17:17:26.631Z,1.40
2022-09-15T17:23:43.262Z,1.90
2022-09-15T17:26:47.161Z,1.85
2022-09-15T17:29:51.047Z,1.50
2022-09-15T17:33:07.267Z,1.73
2022-09-15T17:36:12.757Z,1.90
2022-09-15T17:39:16.945Z,1.27
2022-09-15T17:42:20.610Z,1.70
2022-09-15T17:45:35.651Z,1.50
2022-09-15T17:48:40.066Z,1.30
2022-09-15T17:51:43.732Z,1.45
2022-09-15T17:54:47.703Z,1.52
2022-09-15T17:57:51.958Z,1.30
2022-09-15T18:00:57.010Z,1.77
2022-09-15T18:04:01.587Z,1.60
2022-09-15T18:07:08.564Z,2.08
2022-09-15T18:10:13.984Z,1.73
2022-09-15T18:13:20.914Z,1.67
2022-09-15T18:16:24.834Z,1.65
2022-09-15T18:19:29.214Z,1.40
2022-09-15T18:22:34.141Z,1.30
2022-09-15T18:25:38.533Z,1.20
2022-09-15T18:28:42.896Z,1.30
2022-09-15T18:31:49.360Z,1.38
2022-09-15T18:34:53.765Z,1.58
2022-09-15T18:38:00.020Z,1.10
2022-09-15T18:41:10.021Z,1.20
2022-09-15T18:44:13.921Z,1.40
2022-09-15T18:47:17.780Z,1.95
2022-09-15T18:50:25.207Z,2.10
2022-09-15T18:53:29.439Z,1.88
2022-09-15T18:56:33.551Z,2.30
2022-09-15T18:59:38.835Z,1.80
2022-09-15T19:02:43.452Z,1.63
2022-09-15T19:05:47.673Z,1.40
2022-09-15T19:08:52.228Z,1.40
2022-09-15T19:11:56.252Z,1.50
2022-09-15T19:15:00.247Z,1.60
2022-09-15T19:18:04.249Z,1.48
2022-09-15T19:21:10.787Z,1.60
2022-09-15T19:24:16.065Z,1.40
2022-09-15T19:27:20.294Z,1.40
2022-09-15T19:30:24.746Z,1.95
2022-09-15T19:33:29.059Z,1.40
2022-09-15T19:36:33.707Z,1.55
2022-09-15T19:39:39.057Z,1.40
2022-09-15T19:42:43.986Z,1.40
2022-09-15T19:45:47.729Z,1.58
2022-09-15T19:48:53.489Z,1.33
2022-09-15T19:51:57.601Z,1.40
2022-09-15T19:55:02.255Z,1.50
2022-09-15T19:58:06.487Z,1.40
2022-09-15T20:01:10.864Z,1.17
2022-09-15T20:04:15.702Z,2.17
2022-09-15T20:07:19.673Z,1.20
2022-09-15T20:10:23.811Z,1.35
2022-09-15T20:13:27.972Z,1.50
2022-09-15T20:16:31.974Z,1.63
2022-09-15T20:19:36.816Z,1.60
2022-09-15T20:22:40.969Z,1.38
2022-09-15T20:25:59.987Z,1.42
2022-09-15T20:29:04.872Z,1.42
2022-09-15T20:32:09.046Z,1.65
2022-09-15T20:35:13.719Z,1.77
2022-09-15T20:38:17.923Z,1.50
2022-09-15T20:41:24.192Z,1.20
2022-09-15T20:44:28.551Z,1.23
2022-09-15T20:47:33.472Z,1.73
2022-09-15T20:50:37.254Z,2.00
2022-09-15T20:53:43.986Z,1.80
2022-09-15T20:56:48.113Z,1.33
2022-09-15T20:59:52.195Z,1.27
2022-09-15T21:02:56.286Z,1.38
2022-09-15T21:06:01.875Z,1.30
2022-09-15T21:09:06.331Z,1.40
2022-09-15T21:12:10.470Z,1.40
2022-09-15T21:15:14.758Z,1.48
2022-09-15T21:18:19.891Z,1.40
2022-09-15T21:21:29.963Z,1.70
2022-09-15T21:24:33.847Z,1.50
2022-09-15T21:27:37.549Z,1.52
2022-09-15T21:30:41.387Z,1.30
2022-09-15T21:33:47.005Z,1.05
2022-09-15T21:36:51.807Z,1.40
2022-09-15T21:39:56.871Z,1.20
2022-09-15T21:43:01.838Z,1.40
2022-09-15T21:46:08.429Z,1.25
2022-09-15T21:49:12.757Z,1.27
2022-09-15T21:52:17.029Z,1.30
2022-09-15T21:55:21.179Z,1.85
2022-09-15T21:58:26.169Z,1.40
2022-09-15T22:01:32.549Z,1.52
2022-09-15T22:04:36.324Z,1.30
2022-09-15T22:07:40.208Z,1.33
2022-09-15T22:10:44.485Z,1.50
2022-09-15T22:13:48.678Z,1.33
2022-09-15T22:16:52.483Z,1.52
2022-09-15T22:19:56.994Z,1.40
2022-09-15T22:23:01.326Z,1.38
2022-09-15T22:26:11.433Z,1.30
2022-09-15T22:29:15.367Z,1.20
2022-09-15T22:32:19.183Z,1.52
2022-09-15T22:35:23.209Z,1.10
2022-09-15T22:38:29.459Z,1.10
2022-09-15T22:41:38.420Z,1.15
2022-09-15T22:44:42.424Z,1.00
2022-09-15T22:47:46.558Z,1.13
2022-09-15T22:50:50.856Z,1.00
2022-09-15T22:53:57.055Z,1.10
2022-09-15T22:57:01.226Z,1.05
2022-09-15T23:00:06.265Z,1.30
2022-09-15T23:03:11.425Z,1.20
2022-09-15T23:06:15.391Z,1.35
2022-09-15T23:09:19.824Z,1.20
2022-09-15T23:12:23.952Z,1.15
2022-09-15T23:15:28.739Z,1.42
2022-09-15T23:18:33.893Z,1.10
2022-09-15T23:21:37.925Z,1.30
2022-09-15T23:24:41.939Z,0.98
2022-09-15T23:27:46.082Z,1.38
2022-09-15T23:30:54.510Z,1.13
2022-09-15T23:33:58.428Z,1.48
2022-09-15T23:37:03.217Z,2.05
2022-09-15T23:40:07.437Z,1.40
2022-09-15T23:43:12.420Z,1.35
2022-09-15T23:46:16.691Z,1.40
2022-09-15T23:49:20.363Z,1.58
2022-09-15T23:52:24.527Z,1.00
2022-09-15T23:55:28.283Z,1.23
2022-09-15T23:58:32.510Z,1.13
